sensor_id;sensor_type;location;lat;lon;timestamp;temperature;humidity
8436;DHT22;4255;48.730;9.156;2023-02-28T00:00:47;-1.00;99.90
8436;DHT22;4255;48.730;9.156;2023-02-28T00:03:13;-1.10;99.90
8436;DHT22;4255;48.730;9.156;2023-02-28T00:05:39;-1.20;99.90
8436;DHT22;4255;48.730;9.156;2023-02-28T00:08:04;-1.20;99.90
8436;DHT22;4255;48.730;9.156;2023-02-28T00:10:31;-1.10;99.90
8436;DHT22;4255;48.730;9.156;2023-02-28T00:13:02;-1.00;99.90
8436;DHT22;4255;48.730;9.156;2023-02-28T00:15:28;-1.00;99.90
8436;DHT22;4255;48.730;9.156;2023-02-28T00:17:54;-0.90;99.90
8436;DHT22;4255;48.730;9.156;2023-02-28T00:20:20;-1.10;99.90
8436;DHT22;4255;48.730;9.156;2023-02-28T00:22:48;-1.10;99.90
8436;DHT22;4255;48.730;9.156;2023-02-28T00:25:17;-0.80;99.90
8436;DHT22;4255;48.730;9.156;2023-02-28T00:27:44;-0.90;99.90
8436;DHT22;4255;48.730;9.156;2023-02-28T00:30:12;-0.90;99.90
8436;DHT22;4255;48.730;9.156;2023-02-28T00:32:38;-0.90;99.90
8436;DHT22;4255;48.730;9.156;2023-02-28T00:35:05;-1.10;99.90
8436;DHT22;4255;48.730;9.156;2023-02-28T00:37:31;-1.00;99.90
8436;DHT22;4255;48.730;9.156;2023-02-28T00:39:56;-1.00;99.90
8436;DHT22;4255;48.730;9.156;2023-02-28T00:42:22;-1.10;99.90
8436;DHT22;4255;48.730;9.156;2023-02-28T00:44:48;-1.20;99.90
8436;DHT22;4255;48.730;9.156;2023-02-28T00:47:14;-1.20;99.90
8436;DHT22;4255;48.730;9.156;2023-02-28T00:49:40;-1.20;99.90
8436;DHT22;4255;48.730;9.156;2023-02-28T00:52:06;-1.10;99.90
8436;DHT22;4255;48.730;9.156;2023-02-28T00:54:31;-1.00;99.90
8436;DHT22;4255;48.730;9.156;2023-02-28T00:56:57;-1.10;99.90
8436;DHT22;4255;48.730;9.156;2023-02-28T00:59:23;-1.20;99.90
8436;DHT22;4255;48.730;9.156;2023-02-28T01:01:48;-1.30;99.90
8436;DHT22;4255;48.730;9.156;2023-02-28T01:04:14;-1.30;99.90
8436;DHT22;4255;48.730;9.156;2023-02-28T01:06:40;-1.30;99.90
8436;DHT22;4255;48.730;9.156;2023-02-28T01:09:06;-1.50;99.90
8436;DHT22;4255;48.730;9.156;2023-02-28T01:11:33;-1.40;99.90
8436;DHT22;4255;48.730;9.156;2023-02-28T01:13:59;-1.30;99.90
8436;DHT22;4255;48.730;9.156;2023-02-28T01:16:25;-1.30;99.90
8436;DHT22;4255;48.730;9.156;2023-02-28T01:18:51;-1.30;99.90
8436;DHT22;4255;48.730;9.156;2023-02-28T01:21:18;-1.20;99.90
8436;DHT22;4255;48.730;9.156;2023-02-28T01:23:44;-1.30;99.90
8436;DHT22;4255;48.730;9.156;2023-02-28T01:26:21;-1.40;99.90
8436;DHT22;4255;48.730;9.156;2023-02-28T01:28:48;-1.50;99.90
8436;DHT22;4255;48.730;9.156;2023-02-28T01:31:14;-1.40;99.90
8436;DHT22;4255;48.730;9.156;2023-02-28T01:33:41;-1.40;99.90
8436;DHT22;4255;48.730;9.156;2023-02-28T01:36:10;-1.50;99.90
8436;DHT22;4255;48.730;9.156;2023-02-28T01:38:36;-1.50;99.90
8436;DHT22;4255;48.730;9.156;2023-02-28T01:41:02;-1.50;99.90
8436;DHT22;4255;48.730;9.156;2023-02-28T01:43:31;-1.40;99.90
8436;DHT22;4255;48.730;9.156;2023-02-28T01:45:58;-1.30;99.90
8436;DHT22;4255;48.730;9.156;2023-02-28T01:48:53;-1.30;99.90
8436;DHT22;4255;48.730;9.156;2023-02-28T01:53:54;-1.60;99.90
8436;DHT22;4255;48.730;9.156;2023-02-28T01:56:25;-1.50;99.90
8436;DHT22;4255;48.730;9.156;2023-02-28T01:58:54;-1.50;99.90
8436;DHT22;4255;48.730;9.156;2023-02-28T02:01:21;-1.60;99.90
8436;DHT22;4255;48.730;9.156;2023-02-28T02:03:53;-1.50;99.90
8436;DHT22;4255;48.730;9.156;2023-02-28T02:06:22;-1.70;99.90
8436;DHT22;4255;48.730;9.156;2023-02-28T02:08:48;-1.60;99.90
8436;DHT22;4255;48.730;9.156;2023-02-28T02:11:17;-1.60;99.90
8436;DHT22;4255;48.730;9.156;2023-02-28T02:16:45;-1.50;99.90
8436;DHT22;4255;48.730;9.156;2023-02-28T02:30:48;-1.50;99.90
8436;DHT22;4255;48.730;9.156;2023-02-28T02:36:36;-1.80;99.90
8436;DHT22;4255;48.730;9.156;2023-02-28T02:42:14;-1.60;99.90
8436;DHT22;4255;48.730;9.156;2023-02-28T02:44:46;-1.60;99.90
8436;DHT22;4255;48.730;9.156;2023-02-28T02:47:18;-1.60;99.90
8436;DHT22;4255;48.730;9.156;2023-02-28T02:49:51;-1.60;99.90
8436;DHT22;4255;48.730;9.156;2023-02-28T02:52:20;-1.70;99.90
8436;DHT22;4255;48.730;9.156;2023-02-28T02:54:48;-1.70;99.90
8436;DHT22;4255;48.730;9.156;2023-02-28T02:57:42;-1.60;99.90
8436;DHT22;4255;48.730;9.156;2023-02-28T03:00:11;-1.60;99.90
8436;DHT22;4255;48.730;9.156;2023-02-28T03:02:38;-1.50;99.90
8436;DHT22;4255;48.730;9.156;2023-02-28T03:05:12;-1.50;99.90
8436;DHT22;4255;48.730;9.156;2023-02-28T03:11:05;-1.60;99.90
8436;DHT22;4255;48.730;9.156;2023-02-28T03:22:35;-1.60;99.90
8436;DHT22;4255;48.730;9.156;2023-02-28T03:28:04;-1.70;99.90
8436;DHT22;4255;48.730;9.156;2023-02-28T03:33:42;-1.60;99.90
8436;DHT22;4255;48.730;9.156;2023-02-28T03:36:17;-1.60;99.90
8436;DHT22;4255;48.730;9.156;2023-02-28T03:38:58;-1.50;99.90
8436;DHT22;4255;48.730;9.156;2023-02-28T03:42:09;-1.50;99.90
8436;DHT22;4255;48.730;9.156;2023-02-28T03:44:43;-1.40;99.90
8436;DHT22;4255;48.730;9.156;2023-02-28T03:47:14;-1.40;99.90
8436;DHT22;4255;48.730;9.156;2023-02-28T03:50:06;-1.50;99.90
8436;DHT22;4255;48.730;9.156;2023-02-28T03:52:42;-1.30;99.90
8436;DHT22;4255;48.730;9.156;2023-02-28T03:55:12;-1.40;99.90
8436;DHT22;4255;48.730;9.156;2023-02-28T04:00:20;-1.30;99.90
8436;DHT22;4255;48.730;9.156;2023-02-28T04:02:47;-1.40;99.90
8436;DHT22;4255;48.730;9.156;2023-02-28T04:05:18;-1.30;99.90
8436;DHT22;4255;48.730;9.156;2023-02-28T04:07:44;-1.40;99.90
8436;DHT22;4255;48.730;9.156;2023-02-28T04:10:11;-1.30;99.90
8436;DHT22;4255;48.730;9.156;2023-02-28T04:12:37;-1.30;99.90
8436;DHT22;4255;48.730;9.156;2023-02-28T04:15:03;-1.20;99.90
8436;DHT22;4255;48.730;9.156;2023-02-28T04:17:28;-1.30;99.90
8436;DHT22;4255;48.730;9.156;2023-02-28T04:19:54;-1.40;99.90
8436;DHT22;4255;48.730;9.156;2023-02-28T04:22:23;-1.40;99.90
8436;DHT22;4255;48.730;9.156;2023-02-28T04:24:51;-1.50;99.90
8436;DHT22;4255;48.730;9.156;2023-02-28T04:27:19;-1.60;99.90
8436;DHT22;4255;48.730;9.156;2023-02-28T04:29:45;-1.50;99.90
8436;DHT22;4255;48.730;9.156;2023-02-28T04:32:10;-1.50;99.90
8436;DHT22;4255;48.730;9.156;2023-02-28T04:34:36;-1.50;99.90
8436;DHT22;4255;48.730;9.156;2023-02-28T04:37:02;-1.40;99.90
8436;DHT22;4255;48.730;9.156;2023-02-28T04:39:29;-1.40;99.90
8436;DHT22;4255;48.730;9.156;2023-02-28T04:41:55;-1.30;99.90
8436;DHT22;4255;48.730;9.156;2023-02-28T04:44:21;-1.30;99.90
8436;DHT22;4255;48.730;9.156;2023-02-28T04:46:47;-1.50;99.90
8436;DHT22;4255;48.730;9.156;2023-02-28T04:49:14;-1.50;99.90
8436;DHT22;4255;48.730;9.156;2023-02-28T04:51:40;-1.50;99.90
8436;DHT22;4255;48.730;9.156;2023-02-28T04:54:06;-1.30;99.90
8436;DHT22;4255;48.730;9.156;2023-02-28T04:56:32;-1.40;99.90
8436;DHT22;4255;48.730;9.156;2023-02-28T04:58:57;-1.40;99.90
8436;DHT22;4255;48.730;9.156;2023-02-28T05:01:28;-1.30;99.90
8436;DHT22;4255;48.730;9.156;2023-02-28T05:03:57;-1.30;99.90
8436;DHT22;4255;48.730;9.156;2023-02-28T05:06:27;-1.40;99.90
8436;DHT22;4255;48.730;9.156;2023-02-28T05:08:53;-1.40;99.90
8436;DHT22;4255;48.730;9.156;2023-02-28T05:11:28;-1.40;99.90
8436;DHT22;4255;48.730;9.156;2023-02-28T05:14:05;-1.40;99.90
8436;DHT22;4255;48.730;9.156;2023-02-28T05:16:32;-1.50;99.90
8436;DHT22;4255;48.730;9.156;2023-02-28T05:18:58;-1.50;99.90
8436;DHT22;4255;48.730;9.156;2023-02-28T05:21:33;-1.40;99.90
8436;DHT22;4255;48.730;9.156;2023-02-28T05:24:01;-1.40;99.90
8436;DHT22;4255;48.730;9.156;2023-02-28T05:26:28;-1.40;99.90
8436;DHT22;4255;48.730;9.156;2023-02-28T05:28:54;-1.40;99.90
8436;DHT22;4255;48.730;9.156;2023-02-28T05:31:20;-1.40;99.90
8436;DHT22;4255;48.730;9.156;2023-02-28T05:33:46;-1.40;99.90
8436;DHT22;4255;48.730;9.156;2023-02-28T05:36:12;-1.40;99.90
8436;DHT22;4255;48.730;9.156;2023-02-28T05:38:37;-1.30;99.90
8436;DHT22;4255;48.730;9.156;2023-02-28T05:41:10;-1.40;99.90
8436;DHT22;4255;48.730;9.156;2023-02-28T05:43:37;-1.30;99.90
8436;DHT22;4255;48.730;9.156;2023-02-28T05:46:07;-1.40;99.90
8436;DHT22;4255;48.730;9.156;2023-02-28T05:48:34;-1.30;99.90
8436;DHT22;4255;48.730;9.156;2023-02-28T05:51:00;-1.20;99.90
8436;DHT22;4255;48.730;9.156;2023-02-28T05:53:26;-1.20;99.90
8436;DHT22;4255;48.730;9.156;2023-02-28T05:55:52;-1.20;99.90
8436;DHT22;4255;48.730;9.156;2023-02-28T05:58:17;-1.20;99.90
8436;DHT22;4255;48.730;9.156;2023-02-28T06:00:44;-1.20;99.90
8436;DHT22;4255;48.730;9.156;2023-02-28T06:03:09;-1.10;99.90
8436;DHT22;4255;48.730;9.156;2023-02-28T06:05:35;-1.30;99.90
8436;DHT22;4255;48.730;9.156;2023-02-28T06:08:00;-1.30;99.90
8436;DHT22;4255;48.730;9.156;2023-02-28T06:10:26;-1.20;99.90
8436;DHT22;4255;48.730;9.156;2023-02-28T06:12:52;-0.80;99.90
8436;DHT22;4255;48.730;9.156;2023-02-28T06:15:17;-0.60;99.90
8436;DHT22;4255;48.730;9.156;2023-02-28T06:17:43;-0.70;99.90
8436;DHT22;4255;48.730;9.156;2023-02-28T06:20:10;-0.80;99.90
8436;DHT22;4255;48.730;9.156;2023-02-28T06:22:38;-0.80;99.90
8436;DHT22;4255;48.730;9.156;2023-02-28T06:25:05;-0.70;99.90
8436;DHT22;4255;48.730;9.156;2023-02-28T06:27:32;-1.00;99.90
8436;DHT22;4255;48.730;9.156;2023-02-28T06:29:58;-0.90;99.90
8436;DHT22;4255;48.730;9.156;2023-02-28T06:32:23;-0.90;99.90
8436;DHT22;4255;48.730;9.156;2023-02-28T06:34:49;-0.90;99.90
8436;DHT22;4255;48.730;9.156;2023-02-28T06:37:16;-0.90;99.90
8436;DHT22;4255;48.730;9.156;2023-02-28T06:39:41;-0.70;99.90
8436;DHT22;4255;48.730;9.156;2023-02-28T06:42:07;-0.70;99.90
8436;DHT22;4255;48.730;9.156;2023-02-28T06:44:33;-0.80;99.90
8436;DHT22;4255;48.730;9.156;2023-02-28T06:47:01;-0.90;99.90
8436;DHT22;4255;48.730;9.156;2023-02-28T06:49:32;-0.80;99.90
8436;DHT22;4255;48.730;9.156;2023-02-28T06:51:57;-0.70;99.90
8436;DHT22;4255;48.730;9.156;2023-02-28T06:54:23;-0.80;99.90
8436;DHT22;4255;48.730;9.156;2023-02-28T06:56:49;-0.70;99.90
8436;DHT22;4255;48.730;9.156;2023-02-28T06:59:15;-0.70;99.90
8436;DHT22;4255;48.730;9.156;2023-02-28T07:01:41;-0.70;99.90
8436;DHT22;4255;48.730;9.156;2023-02-28T07:04:06;-0.70;99.90
8436;DHT22;4255;48.730;9.156;2023-02-28T07:06:32;-0.80;99.90
8436;DHT22;4255;48.730;9.156;2023-02-28T07:08:58;-0.90;99.90
8436;DHT22;4255;48.730;9.156;2023-02-28T07:11:26;-0.90;99.90
8436;DHT22;4255;48.730;9.156;2023-02-28T07:13:53;-0.80;99.90
8436;DHT22;4255;48.730;9.156;2023-02-28T07:16:20;-0.80;99.90
8436;DHT22;4255;48.730;9.156;2023-02-28T07:18:45;-0.70;99.90
8436;DHT22;4255;48.730;9.156;2023-02-28T07:21:11;-0.50;99.90
8436;DHT22;4255;48.730;9.156;2023-02-28T07:23:37;-0.70;99.90
8436;DHT22;4255;48.730;9.156;2023-02-28T07:26:04;-0.70;99.90
8436;DHT22;4255;48.730;9.156;2023-02-28T07:28:30;-0.60;99.90
8436;DHT22;4255;48.730;9.156;2023-02-28T07:30:56;-0.70;99.90
8436;DHT22;4255;48.730;9.156;2023-02-28T07:33:22;-0.60;99.90
8436;DHT22;4255;48.730;9.156;2023-02-28T07:35:49;-0.50;99.90
8436;DHT22;4255;48.730;9.156;2023-02-28T07:38:15;-0.60;99.90
8436;DHT22;4255;48.730;9.156;2023-02-28T07:40:41;-0.60;99.90
8436;DHT22;4255;48.730;9.156;2023-02-28T07:43:06;-0.40;99.90
8436;DHT22;4255;48.730;9.156;2023-02-28T07:45:32;-0.30;99.90
8436;DHT22;4255;48.730;9.156;2023-02-28T07:48:00;-0.30;99.90
8436;DHT22;4255;48.730;9.156;2023-02-28T07:50:26;-0.40;99.90
8436;DHT22;4255;48.730;9.156;2023-02-28T07:52:54;-0.10;99.90
8436;DHT22;4255;48.730;9.156;2023-02-28T07:55:19;0.00;99.90
8436;DHT22;4255;48.730;9.156;2023-02-28T07:57:45;0.00;99.90
8436;DHT22;4255;48.730;9.156;2023-02-28T08:00:11;-0.10;99.90
8436;DHT22;4255;48.730;9.156;2023-02-28T08:02:38;-0.10;99.90
8436;DHT22;4255;48.730;9.156;2023-02-28T08:05:05;0.00;99.90
8436;DHT22;4255;48.730;9.156;2023-02-28T08:07:31;-0.20;99.90
8436;DHT22;4255;48.730;9.156;2023-02-28T08:09:57;-0.20;99.90
8436;DHT22;4255;48.730;9.156;2023-02-28T08:12:23;0.10;99.90
8436;DHT22;4255;48.730;9.156;2023-02-28T08:14:49;-0.10;99.90
8436;DHT22;4255;48.730;9.156;2023-02-28T08:17:14;-0.20;99.90
8436;DHT22;4255;48.730;9.156;2023-02-28T08:19:40;-0.20;99.90
8436;DHT22;4255;48.730;9.156;2023-02-28T08:22:05;-0.20;99.90
8436;DHT22;4255;48.730;9.156;2023-02-28T08:24:31;-0.10;99.90
8436;DHT22;4255;48.730;9.156;2023-02-28T08:26:57;-0.10;99.90
8436;DHT22;4255;48.730;9.156;2023-02-28T08:29:22;-0.10;99.90
8436;DHT22;4255;48.730;9.156;2023-02-28T08:31:48;0.00;99.90
8436;DHT22;4255;48.730;9.156;2023-02-28T08:34:15;-0.20;99.90
8436;DHT22;4255;48.730;9.156;2023-02-28T08:36:41;0.00;99.90
8436;DHT22;4255;48.730;9.156;2023-02-28T08:39:09;-0.20;99.90
8436;DHT22;4255;48.730;9.156;2023-02-28T08:41:35;-0.10;99.90
8436;DHT22;4255;48.730;9.156;2023-02-28T08:44:00;-0.20;99.90
8436;DHT22;4255;48.730;9.156;2023-02-28T08:46:27;0.00;99.90
8436;DHT22;4255;48.730;9.156;2023-02-28T08:48:54;-0.20;99.90
8436;DHT22;4255;48.730;9.156;2023-02-28T08:51:20;-0.30;99.90
8436;DHT22;4255;48.730;9.156;2023-02-28T08:53:56;-0.40;99.90
8436;DHT22;4255;48.730;9.156;2023-02-28T08:56:23;-0.20;99.90
8436;DHT22;4255;48.730;9.156;2023-02-28T08:58:50;-0.10;99.90
8436;DHT22;4255;48.730;9.156;2023-02-28T09:01:21;0.00;99.90
8436;DHT22;4255;48.730;9.156;2023-02-28T09:03:49;0.10;99.90
8436;DHT22;4255;48.730;9.156;2023-02-28T09:06:17;0.00;99.90
8436;DHT22;4255;48.730;9.156;2023-02-28T09:08:43;0.00;99.90
8436;DHT22;4255;48.730;9.156;2023-02-28T09:11:09;0.10;99.90
8436;DHT22;4255;48.730;9.156;2023-02-28T09:13:35;0.30;99.90
8436;DHT22;4255;48.730;9.156;2023-02-28T09:16:05;0.40;99.90
8436;DHT22;4255;48.730;9.156;2023-02-28T09:18:33;0.30;99.90
8436;DHT22;4255;48.730;9.156;2023-02-28T09:20:58;0.40;99.90
8436;DHT22;4255;48.730;9.156;2023-02-28T09:23:24;0.20;99.90
8436;DHT22;4255;48.730;9.156;2023-02-28T09:25:53;0.40;99.90
8436;DHT22;4255;48.730;9.156;2023-02-28T09:28:19;0.50;99.90
8436;DHT22;4255;48.730;9.156;2023-02-28T09:30:50;0.40;99.90
8436;DHT22;4255;48.730;9.156;2023-02-28T09:33:18;0.70;99.90
8436;DHT22;4255;48.730;9.156;2023-02-28T09:35:46;0.60;99.90
8436;DHT22;4255;48.730;9.156;2023-02-28T09:38:12;0.80;99.90
8436;DHT22;4255;48.730;9.156;2023-02-28T09:40:47;0.90;99.90
8436;DHT22;4255;48.730;9.156;2023-02-28T09:43:15;0.90;99.90
8436;DHT22;4255;48.730;9.156;2023-02-28T09:45:55;1.00;99.90
8436;DHT22;4255;48.730;9.156;2023-02-28T09:48:37;1.10;99.90
8436;DHT22;4255;48.730;9.156;2023-02-28T09:51:05;1.20;99.90
8436;DHT22;4255;48.730;9.156;2023-02-28T09:53:37;1.00;99.90
8436;DHT22;4255;48.730;9.156;2023-02-28T09:56:14;1.20;99.90
8436;DHT22;4255;48.730;9.156;2023-02-28T09:58:48;1.40;99.90
8436;DHT22;4255;48.730;9.156;2023-02-28T10:06:22;1.20;99.90
8436;DHT22;4255;48.730;9.156;2023-02-28T10:09:01;1.40;99.90
8436;DHT22;4255;48.730;9.156;2023-02-28T10:11:28;1.20;99.90
8436;DHT22;4255;48.730;9.156;2023-02-28T10:14:06;0.90;99.90
8436;DHT22;4255;48.730;9.156;2023-02-28T10:17:04;1.20;99.90
8436;DHT22;4255;48.730;9.156;2023-02-28T10:20:01;1.40;99.90
8436;DHT22;4255;48.730;9.156;2023-02-28T10:25:23;1.90;99.90
8436;DHT22;4255;48.730;9.156;2023-02-28T10:27:49;2.20;99.90
8436;DHT22;4255;48.730;9.156;2023-02-28T10:30:18;2.10;99.90
8436;DHT22;4255;48.730;9.156;2023-02-28T10:32:51;2.10;99.90
8436;DHT22;4255;48.730;9.156;2023-02-28T10:35:24;2.10;99.90
8436;DHT22;4255;48.730;9.156;2023-02-28T10:37:54;1.90;99.90
8436;DHT22;4255;48.730;9.156;2023-02-28T10:45:20;2.00;99.90
8436;DHT22;4255;48.730;9.156;2023-02-28T10:59:26;1.80;99.90
8436;DHT22;4255;48.730;9.156;2023-02-28T11:01:46;1.80;99.90
8436;DHT22;4255;48.730;9.156;2023-02-28T11:04:20;2.10;99.90
8436;DHT22;4255;48.730;9.156;2023-02-28T11:07:21;2.20;99.90
8436;DHT22;4255;48.730;9.156;2023-02-28T11:09:57;2.20;99.90
8436;DHT22;4255;48.730;9.156;2023-02-28T11:12:31;2.20;99.90
8436;DHT22;4255;48.730;9.156;2023-02-28T11:15:20;2.20;99.90
8436;DHT22;4255;48.730;9.156;2023-02-28T11:20:39;2.60;99.90
8436;DHT22;4255;48.730;9.156;2023-02-28T11:23:05;2.40;99.90
8436;DHT22;4255;48.730;9.156;2023-02-28T11:25:38;2.30;99.90
8436;DHT22;4255;48.730;9.156;2023-02-28T11:28:06;2.10;99.90
8436;DHT22;4255;48.730;9.156;2023-02-28T11:30:40;2.10;99.90
8436;DHT22;4255;48.730;9.156;2023-02-28T11:33:30;2.20;99.90
8436;DHT22;4255;48.730;9.156;2023-02-28T11:36:12;2.40;99.90
8436;DHT22;4255;48.730;9.156;2023-02-28T11:38:39;2.80;99.90
8436;DHT22;4255;48.730;9.156;2023-02-28T12:00:26;3.40;99.90
8436;DHT22;4255;48.730;9.156;2023-02-28T12:05:36;3.90;99.90
8436;DHT22;4255;48.730;9.156;2023-02-28T12:11:51;4.30;99.90
8436;DHT22;4255;48.730;9.156;2023-02-28T12:28:03;4.00;99.90
8436;DHT22;4255;48.730;9.156;2023-02-28T12:30:35;4.10;99.90
8436;DHT22;4255;48.730;9.156;2023-02-28T12:33:03;4.10;99.90
8436;DHT22;4255;48.730;9.156;2023-02-28T12:35:50;4.00;99.90
8436;DHT22;4255;48.730;9.156;2023-02-28T12:38:21;4.00;99.90
8436;DHT22;4255;48.730;9.156;2023-02-28T12:40:59;4.10;99.90
8436;DHT22;4255;48.730;9.156;2023-02-28T12:43:33;4.40;99.90
8436;DHT22;4255;48.730;9.156;2023-02-28T12:46:08;4.90;99.90
8436;DHT22;4255;48.730;9.156;2023-02-28T12:48:52;5.20;99.90
8436;DHT22;4255;48.730;9.156;2023-02-28T12:51:19;5.80;99.90
8436;DHT22;4255;48.730;9.156;2023-02-28T12:56:36;5.40;99.90
8436;DHT22;4255;48.730;9.156;2023-02-28T12:59:19;5.10;99.90
8436;DHT22;4255;48.730;9.156;2023-02-28T13:02:09;5.10;99.90
8436;DHT22;4255;48.730;9.156;2023-02-28T13:07:36;5.00;99.90
8436;DHT22;4255;48.730;9.156;2023-02-28T13:10:08;4.80;99.90
8436;DHT22;4255;48.730;9.156;2023-02-28T13:12:34;4.50;99.90
8436;DHT22;4255;48.730;9.156;2023-02-28T13:15:23;4.50;99.90
8436;DHT22;4255;48.730;9.156;2023-02-28T13:17:52;4.80;99.90
8436;DHT22;4255;48.730;9.156;2023-02-28T13:20:32;5.00;99.90
8436;DHT22;4255;48.730;9.156;2023-02-28T13:22:58;4.90;99.90
8436;DHT22;4255;48.730;9.156;2023-02-28T13:28:12;5.00;99.90
8436;DHT22;4255;48.730;9.156;2023-02-28T13:36:11;5.30;99.90
8436;DHT22;4255;48.730;9.156;2023-02-28T13:41:46;5.90;99.90
8436;DHT22;4255;48.730;9.156;2023-02-28T13:49:30;5.90;99.90
8436;DHT22;4255;48.730;9.156;2023-02-28T14:01:02;6.00;99.90
8436;DHT22;4255;48.730;9.156;2023-02-28T14:06:33;6.20;99.90
8436;DHT22;4255;48.730;9.156;2023-02-28T14:11:39;6.30;99.90
8436;DHT22;4255;48.730;9.156;2023-02-28T14:14:07;6.10;99.90
8436;DHT22;4255;48.730;9.156;2023-02-28T14:19:09;5.70;99.90
8436;DHT22;4255;48.730;9.156;2023-02-28T14:21:39;5.50;99.90
8436;DHT22;4255;48.730;9.156;2023-02-28T14:27:05;5.50;99.90
8436;DHT22;4255;48.730;9.156;2023-02-28T14:32:26;5.70;99.90
8436;DHT22;4255;48.730;9.156;2023-02-28T14:35:22;6.00;99.90
8436;DHT22;4255;48.730;9.156;2023-02-28T14:37:53;6.00;99.90
8436;DHT22;4255;48.730;9.156;2023-02-28T14:40:32;6.00;99.90
8436;DHT22;4255;48.730;9.156;2023-02-28T14:43:06;6.00;99.90
8436;DHT22;4255;48.730;9.156;2023-02-28T14:45:34;5.90;99.90
8436;DHT22;4255;48.730;9.156;2023-02-28T14:48:02;5.70;99.90
8436;DHT22;4255;48.730;9.156;2023-02-28T14:50:32;5.70;99.90
8436;DHT22;4255;48.730;9.156;2023-02-28T14:52:59;5.50;99.90
8436;DHT22;4255;48.730;9.156;2023-02-28T14:55:31;5.70;99.90
8436;DHT22;4255;48.730;9.156;2023-02-28T14:57:59;5.90;99.90
8436;DHT22;4255;48.730;9.156;2023-02-28T15:00:31;5.90;99.90
8436;DHT22;4255;48.730;9.156;2023-02-28T15:03:00;6.00;99.90
8436;DHT22;4255;48.730;9.156;2023-02-28T15:05:31;6.00;99.90
8436;DHT22;4255;48.730;9.156;2023-02-28T15:10:32;5.70;99.90
8436;DHT22;4255;48.730;9.156;2023-02-28T15:13:01;5.90;99.90
8436;DHT22;4255;48.730;9.156;2023-02-28T15:18:31;6.00;99.90
8436;DHT22;4255;48.730;9.156;2023-02-28T15:21:05;6.10;99.90
8436;DHT22;4255;48.730;9.156;2023-02-28T15:23:32;6.20;99.90
8436;DHT22;4255;48.730;9.156;2023-02-28T15:26:00;6.20;99.90
8436;DHT22;4255;48.730;9.156;2023-02-28T15:28:25;5.90;99.90
8436;DHT22;4255;48.730;9.156;2023-02-28T15:30:58;5.70;99.90
8436;DHT22;4255;48.730;9.156;2023-02-28T15:33:30;5.70;99.90
8436;DHT22;4255;48.730;9.156;2023-02-28T15:36:11;5.90;99.90
8436;DHT22;4255;48.730;9.156;2023-02-28T15:38:38;5.80;99.90
8436;DHT22;4255;48.730;9.156;2023-02-28T15:41:04;5.70;99.90
8436;DHT22;4255;48.730;9.156;2023-02-28T15:43:37;5.60;99.90
8436;DHT22;4255;48.730;9.156;2023-02-28T15:48:45;5.40;99.90
8436;DHT22;4255;48.730;9.156;2023-02-28T15:53:54;5.60;99.90
8436;DHT22;4255;48.730;9.156;2023-02-28T15:58:47;5.80;99.90
8436;DHT22;4255;48.730;9.156;2023-02-28T16:01:27;5.80;99.90
8436;DHT22;4255;48.730;9.156;2023-02-28T16:04:16;5.70;99.90
8436;DHT22;4255;48.730;9.156;2023-02-28T16:06:46;5.60;99.90
8436;DHT22;4255;48.730;9.156;2023-02-28T16:09:14;5.40;99.90
8436;DHT22;4255;48.730;9.156;2023-02-28T16:11:47;5.30;99.90
8436;DHT22;4255;48.730;9.156;2023-02-28T16:14:17;5.40;99.90
8436;DHT22;4255;48.730;9.156;2023-02-28T16:16:45;5.20;99.90
8436;DHT22;4255;48.730;9.156;2023-02-28T16:19:12;4.90;99.90
8436;DHT22;4255;48.730;9.156;2023-02-28T16:21:37;4.90;99.90
8436;DHT22;4255;48.730;9.156;2023-02-28T16:24:03;5.00;99.90
8436;DHT22;4255;48.730;9.156;2023-02-28T16:26:28;5.00;99.90
8436;DHT22;4255;48.730;9.156;2023-02-28T16:28:54;4.90;99.90
8436;DHT22;4255;48.730;9.156;2023-02-28T16:31:20;4.80;99.90
8436;DHT22;4255;48.730;9.156;2023-02-28T16:33:46;4.90;99.90
8436;DHT22;4255;48.730;9.156;2023-02-28T16:36:20;5.00;99.90
8436;DHT22;4255;48.730;9.156;2023-02-28T16:38:46;5.10;99.90
8436;DHT22;4255;48.730;9.156;2023-02-28T16:41:14;4.90;99.90
8436;DHT22;4255;48.730;9.156;2023-02-28T16:43:45;4.90;99.90
8436;DHT22;4255;48.730;9.156;2023-02-28T16:46:11;4.70;99.90
8436;DHT22;4255;48.730;9.156;2023-02-28T16:48:38;4.70;99.90
8436;DHT22;4255;48.730;9.156;2023-02-28T16:51:06;4.80;99.90
8436;DHT22;4255;48.730;9.156;2023-02-28T16:53:32;4.80;99.90
8436;DHT22;4255;48.730;9.156;2023-02-28T16:55:57;4.70;99.90
8436;DHT22;4255;48.730;9.156;2023-02-28T16:58:23;4.70;99.90
8436;DHT22;4255;48.730;9.156;2023-02-28T17:00:51;4.60;99.90
8436;DHT22;4255;48.730;9.156;2023-02-28T17:03:26;4.40;99.90
8436;DHT22;4255;48.730;9.156;2023-02-28T17:05:52;4.30;99.90
8436;DHT22;4255;48.730;9.156;2023-02-28T17:08:18;4.20;99.90
8436;DHT22;4255;48.730;9.156;2023-02-28T17:10:43;4.20;99.90
8436;DHT22;4255;48.730;9.156;2023-02-28T17:13:09;4.00;99.90
8436;DHT22;4255;48.730;9.156;2023-02-28T17:15:36;4.00;99.90
8436;DHT22;4255;48.730;9.156;2023-02-28T17:18:03;3.90;99.90
8436;DHT22;4255;48.730;9.156;2023-02-28T17:20:29;3.80;99.90
8436;DHT22;4255;48.730;9.156;2023-02-28T17:22:55;3.90;99.90
8436;DHT22;4255;48.730;9.156;2023-02-28T17:25:22;3.70;99.90
8436;DHT22;4255;48.730;9.156;2023-02-28T17:27:48;3.70;99.90
8436;DHT22;4255;48.730;9.156;2023-02-28T17:30:20;3.60;99.90
8436;DHT22;4255;48.730;9.156;2023-02-28T17:32:46;3.50;99.90
8436;DHT22;4255;48.730;9.156;2023-02-28T17:35:11;3.40;99.90
8436;DHT22;4255;48.730;9.156;2023-02-28T17:37:37;3.40;99.90
8436;DHT22;4255;48.730;9.156;2023-02-28T17:40:04;3.30;99.90
8436;DHT22;4255;48.730;9.156;2023-02-28T17:42:30;3.40;99.90
8436;DHT22;4255;48.730;9.156;2023-02-28T17:44:56;3.40;99.90
8436;DHT22;4255;48.730;9.156;2023-02-28T17:47:21;3.30;99.90
8436;DHT22;4255;48.730;9.156;2023-02-28T17:49:47;3.30;99.90
8436;DHT22;4255;48.730;9.156;2023-02-28T17:52:12;3.30;99.90
8436;DHT22;4255;48.730;9.156;2023-02-28T17:54:38;3.20;99.90
8436;DHT22;4255;48.730;9.156;2023-02-28T17:57:04;3.20;99.90
8436;DHT22;4255;48.730;9.156;2023-02-28T17:59:29;3.20;99.90
8436;DHT22;4255;48.730;9.156;2023-02-28T18:02:00;3.30;99.90
8436;DHT22;4255;48.730;9.156;2023-02-28T18:04:25;3.20;99.90
8436;DHT22;4255;48.730;9.156;2023-02-28T18:06:52;3.40;99.90
8436;DHT22;4255;48.730;9.156;2023-02-28T18:09:22;3.40;99.90
8436;DHT22;4255;48.730;9.156;2023-02-28T18:11:52;3.20;99.90
8436;DHT22;4255;48.730;9.156;2023-02-28T18:14:19;3.10;99.90
8436;DHT22;4255;48.730;9.156;2023-02-28T18:16:45;3.00;99.90
8436;DHT22;4255;48.730;9.156;2023-02-28T18:19:12;3.00;99.90
8436;DHT22;4255;48.730;9.156;2023-02-28T18:21:43;3.10;99.90
8436;DHT22;4255;48.730;9.156;2023-02-28T18:24:10;3.10;99.90
8436;DHT22;4255;48.730;9.156;2023-02-28T18:26:37;3.00;99.90
8436;DHT22;4255;48.730;9.156;2023-02-28T18:29:04;3.00;99.90
8436;DHT22;4255;48.730;9.156;2023-02-28T18:31:30;3.10;99.90
8436;DHT22;4255;48.730;9.156;2023-02-28T18:33:59;3.10;99.90
8436;DHT22;4255;48.730;9.156;2023-02-28T18:36:26;3.00;99.90
8436;DHT22;4255;48.730;9.156;2023-02-28T18:38:52;3.10;99.90
8436;DHT22;4255;48.730;9.156;2023-02-28T18:41:19;3.00;99.90
8436;DHT22;4255;48.730;9.156;2023-02-28T18:43:46;2.90;99.90
8436;DHT22;4255;48.730;9.156;2023-02-28T18:46:15;2.80;99.90
8436;DHT22;4255;48.730;9.156;2023-02-28T18:48:41;2.90;99.90
8436;DHT22;4255;48.730;9.156;2023-02-28T18:51:07;2.90;99.90
8436;DHT22;4255;48.730;9.156;2023-02-28T18:53:34;2.90;99.90
8436;DHT22;4255;48.730;9.156;2023-02-28T18:56:01;2.90;99.90
8436;DHT22;4255;48.730;9.156;2023-02-28T18:58:27;3.00;99.90
8436;DHT22;4255;48.730;9.156;2023-02-28T19:00:53;3.10;99.90
8436;DHT22;4255;48.730;9.156;2023-02-28T19:03:19;3.00;99.90
8436;DHT22;4255;48.730;9.156;2023-02-28T19:05:45;2.80;99.90
8436;DHT22;4255;48.730;9.156;2023-02-28T19:08:11;2.90;99.90
8436;DHT22;4255;48.730;9.156;2023-02-28T19:10:39;2.90;99.90